NCAR-RAP Real-Time Weather Data

Output produced by METARs form (10 April 2020  04:51 UTC)
found at http://weather.rap.ucar.edu/surface/
 
KCHA 100353Z 33008KT 10SM SCT120 BKN250 17/M02 A2985 RMK AO2 SLP102 LAST T01671022